createdAt,value
2023-01-21T00:01:11.991Z,37.25
2023-01-21T00:03:39.634Z,32.03
2023-01-21T00:06:07.517Z,34.70
2023-01-21T00:08:36.786Z,36.42
2023-01-21T00:11:15.058Z,32.17
2023-01-21T00:13:43.638Z,33.47
2023-01-21T00:16:11.613Z,35.17
2023-01-21T00:18:39.073Z,35.53
2023-01-21T00:21:06.847Z,38.15
2023-01-21T00:23:34.088Z,34.15
2023-01-21T00:26:03.275Z,36.38
2023-01-21T00:28:32.294Z,31.35
2023-01-21T00:31:02.026Z,34.30
2023-01-21T00:33:30.181Z,38.97
2023-01-21T00:36:01.914Z,32.83
2023-01-21T00:38:29.583Z,30.80
2023-01-21T00:41:26.394Z,35.50
2023-01-21T00:43:53.761Z,36.38
2023-01-21T00:46:21.131Z,32.45
2023-01-21T00:48:49.749Z,35.35
2023-01-21T00:51:17.367Z,37.50
2023-01-21T00:53:44.759Z,40.38
2023-01-21T00:56:13.595Z,40.10
2023-01-21T00:58:43.491Z,39.67
2023-01-21T01:01:14.501Z,36.30
2023-01-21T01:03:42.509Z,43.65
2023-01-21T01:06:19.915Z,37.20
2023-01-21T01:08:49.580Z,36.30
2023-01-21T01:11:17.975Z,36.17
2023-01-21T01:13:45.289Z,39.83
2023-01-21T01:16:15.024Z,38.75
2023-01-21T01:18:43.262Z,40.33
2023-01-21T01:21:21.813Z,36.88
2023-01-21T01:23:52.196Z,36.30
2023-01-21T01:26:21.332Z,37.42
2023-01-21T01:28:49.016Z,38.88
2023-01-21T01:31:18.508Z,39.25
2023-01-21T01:33:46.443Z,36.75
2023-01-21T01:36:17.927Z,38.10
2023-01-21T01:38:45.680Z,39.40
2023-01-21T01:41:19.041Z,35.15
2023-01-21T01:44:05.287Z,36.38
2023-01-21T01:46:35.355Z,40.53
2023-01-21T01:49:15.616Z,33.45
2023-01-21T01:51:51.304Z,39.63
2023-01-21T01:54:28.093Z,40.50
2023-01-21T01:56:58.705Z,35.10
2023-01-21T01:59:26.876Z,34.88
2023-01-21T02:01:55.078Z,42.25
2023-01-21T02:04:26.342Z,36.00
2023-01-21T02:06:55.864Z,35.40
2023-01-21T02:09:29.670Z,39.08
2023-01-21T02:12:02.324Z,39.55
2023-01-21T02:14:31.478Z,40.13
2023-01-21T02:17:11.143Z,33.10
2023-01-21T02:19:47.056Z,34.90
2023-01-21T02:22:26.320Z,42.67
2023-01-21T02:25:16.732Z,36.45
2023-01-21T02:27:59.704Z,33.90
2023-01-21T02:30:52.815Z,32.40
2023-01-21T02:33:51.489Z,31.23
2023-01-21T02:36:30.877Z,37.33
2023-01-21T02:39:20.096Z,36.08
2023-01-21T02:41:57.968Z,37.63
2023-01-21T02:44:35.659Z,36.45
2023-01-21T02:47:16.432Z,33.47
2023-01-21T02:52:31.467Z,41.72
2023-01-21T02:55:01.600Z,41.72
2023-01-21T02:57:53.224Z,33.60
2023-01-21T03:00:31.016Z,33.55
2023-01-21T03:03:15.441Z,38.03
2023-01-21T03:05:53.771Z,36.45
2023-01-21T03:08:23.297Z,37.50
2023-01-21T03:11:00.090Z,39.40
2023-01-21T03:14:03.345Z,35.80
2023-01-21T03:16:54.370Z,40.30
2023-01-21T03:19:43.834Z,39.38
2023-01-21T03:22:17.411Z,40.60
2023-01-21T03:24:49.077Z,43.75
2023-01-21T03:27:20.116Z,39.10
2023-01-21T03:29:52.612Z,46.58
2023-01-21T03:32:22.226Z,39.30
2023-01-21T03:34:54.607Z,39.28
2023-01-21T03:37:52.998Z,46.28
2023-01-21T03:40:37.040Z,48.17
2023-01-21T03:43:04.637Z,40.92
2023-01-21T03:45:49.390Z,36.33
2023-01-21T03:48:26.271Z,39.33
2023-01-21T03:50:59.797Z,39.30
2023-01-21T03:53:27.639Z,42.63
2023-01-21T03:55:54.915Z,41.78
2023-01-21T03:58:22.240Z,43.90
2023-01-21T04:00:49.548Z,38.80
2023-01-21T04:03:17.132Z,43.40
2023-01-21T04:05:44.392Z,42.33
2023-01-21T04:08:11.664Z,40.05
2023-01-21T04:10:38.958Z,40.55
2023-01-21T04:13:07.692Z,41.28
2023-01-21T04:15:34.944Z,41.80
2023-01-21T04:18:02.212Z,36.45
2023-01-21T04:20:29.524Z,39.45
2023-01-21T04:22:56.792Z,46.17
2023-01-21T04:25:24.111Z,43.92
2023-01-21T04:27:51.383Z,43.58
2023-01-21T04:30:18.975Z,50.13
2023-01-21T04:32:46.596Z,50.03
2023-01-21T04:35:13.973Z,41.28
2023-01-21T04:37:41.266Z,40.95
2023-01-21T04:40:09.970Z,45.15
2023-01-21T04:42:37.258Z,44.72
2023-01-21T04:45:05.016Z,41.95
2023-01-21T04:47:33.581Z,48.15
2023-01-21T04:50:02.275Z,41.63
2023-01-21T04:52:30.444Z,40.80
2023-01-21T04:54:57.706Z,42.08
2023-01-21T04:57:25.000Z,47.60
2023-01-21T04:59:53.723Z,41.83
2023-01-21T05:02:21.175Z,38.97
2023-01-21T05:04:48.454Z,42.03
2023-01-21T05:07:16.023Z,38.20
2023-01-21T05:09:43.277Z,39.83
2023-01-21T05:12:10.612Z,42.00
2023-01-21T05:14:38.003Z,39.90
2023-01-21T05:17:05.233Z,39.88
2023-01-21T05:19:33.923Z,44.45
2023-01-21T05:22:01.345Z,38.88
2023-01-21T05:24:30.745Z,39.03
2023-01-21T05:26:58.012Z,41.03
2023-01-21T05:29:25.525Z,38.53
2023-01-21T05:31:52.762Z,38.55
2023-01-21T05:34:20.500Z,35.28
2023-01-21T05:36:47.786Z,40.10
2023-01-21T05:39:15.125Z,39.58
2023-01-21T05:41:42.434Z,40.03
2023-01-21T05:44:10.040Z,36.92
2023-01-21T05:46:37.275Z,40.03
2023-01-21T05:49:04.641Z,40.30
2023-01-21T05:51:32.244Z,38.20
2023-01-21T05:53:59.599Z,43.55
2023-01-21T05:56:28.194Z,40.10
2023-01-21T05:58:55.443Z,39.78
2023-01-21T06:01:22.804Z,38.80
2023-01-21T06:03:50.159Z,42.53
2023-01-21T06:06:17.554Z,39.00
2023-01-21T06:08:44.831Z,38.90
2023-01-21T06:11:12.159Z,41.50
2023-01-21T06:13:39.513Z,42.50
2023-01-21T06:16:07.240Z,46.25
2023-01-21T06:18:36.749Z,38.75
2023-01-21T06:21:04.400Z,41.08
2023-01-21T06:23:31.723Z,42.25
2023-01-21T06:26:00.869Z,43.83
2023-01-21T06:28:29.832Z,43.88
2023-01-21T06:30:57.360Z,42.53
2023-01-21T06:33:24.883Z,42.67
2023-01-21T06:35:52.478Z,38.35
2023-01-21T06:38:19.872Z,41.60
2023-01-21T06:40:47.236Z,46.05
2023-01-21T06:43:15.972Z,42.28
2023-01-21T06:45:43.357Z,46.75
2023-01-21T06:48:10.760Z,37.80
2023-01-21T06:50:41.296Z,40.58
2023-01-21T06:53:08.608Z,49.80
2023-01-21T06:55:35.923Z,45.25
2023-01-21T06:58:03.289Z,40.22
2023-01-21T07:00:33.720Z,43.13
2023-01-21T07:03:01.288Z,48.88
2023-01-21T07:05:28.621Z,51.45
2023-01-21T07:07:57.264Z,42.33
2023-01-21T07:10:25.696Z,46.97
2023-01-21T07:12:52.975Z,49.95
2023-01-21T07:15:20.354Z,53.42
2023-01-21T07:17:47.787Z,46.70
2023-01-21T07:20:15.310Z,48.15
2023-01-21T07:22:42.932Z,48.47
2023-01-21T07:25:10.347Z,52.40
2023-01-21T07:27:37.638Z,44.78
2023-01-21T07:30:06.530Z,48.65
2023-01-21T07:32:34.007Z,47.22
2023-01-21T07:35:01.405Z,44.60
2023-01-21T07:37:28.691Z,46.30
2023-01-21T07:39:56.563Z,39.60
2023-01-21T07:42:23.852Z,42.88
2023-01-21T07:44:51.433Z,37.53
2023-01-21T07:47:18.882Z,37.85
2023-01-21T07:49:49.379Z,39.67
2023-01-21T07:52:17.288Z,45.42
2023-01-21T07:54:44.513Z,41.28
2023-01-21T07:57:11.782Z,39.92
2023-01-21T07:59:39.292Z,51.47
2023-01-21T08:02:06.728Z,44.28
2023-01-21T08:04:34.047Z,40.67
2023-01-21T08:07:06.917Z,46.08
2023-01-21T08:09:34.134Z,42.92
2023-01-21T08:12:01.449Z,43.95
2023-01-21T08:14:29.079Z,42.22
2023-01-21T08:16:56.745Z,41.45
2023-01-21T08:19:24.108Z,44.25
2023-01-21T08:21:51.873Z,40.03
2023-01-21T08:24:19.200Z,41.58
2023-01-21T08:26:46.557Z,38.20
2023-01-21T08:29:13.812Z,46.92
2023-01-21T08:31:41.108Z,48.40
2023-01-21T08:34:10.493Z,44.33
2023-01-21T08:36:39.041Z,43.60
2023-01-21T08:39:06.963Z,40.75
2023-01-21T08:41:34.270Z,40.10
2023-01-21T08:44:01.584Z,42.40
2023-01-21T08:46:29.026Z,41.08
2023-01-21T08:48:56.659Z,39.53
2023-01-21T08:51:24.168Z,42.97
2023-01-21T08:53:54.020Z,45.42
2023-01-21T08:56:21.363Z,30.05
2023-01-21T08:58:48.728Z,48.65
2023-01-21T09:01:16.317Z,45.85
2023-01-21T09:03:43.624Z,46.28
2023-01-21T09:06:11.596Z,47.35
2023-01-21T09:08:39.539Z,51.47
2023-01-21T09:11:07.310Z,45.92
2023-01-21T09:13:37.900Z,50.35
2023-01-21T09:16:09.956Z,51.63
2023-01-21T09:18:38.340Z,50.75
2023-01-21T09:21:07.083Z,46.40
2023-01-21T09:23:35.818Z,47.88
2023-01-21T09:26:07.466Z,47.72
2023-01-21T09:28:37.429Z,54.00
2023-01-21T09:31:08.592Z,40.33
2023-01-21T09:33:41.477Z,46.60
2023-01-21T09:36:12.977Z,41.92
2023-01-21T09:38:45.000Z,47.60
2023-01-21T09:41:44.300Z,44.78
2023-01-21T09:44:20.585Z,50.75
2023-01-21T09:46:56.267Z,49.95
2023-01-21T09:49:33.487Z,51.80
2023-01-21T09:52:22.801Z,49.38
2023-01-21T09:54:50.528Z,61.63
2023-01-21T09:57:20.623Z,52.60
2023-01-21T09:59:57.727Z,52.20
2023-01-21T10:02:27.980Z,47.33
2023-01-21T10:05:24.379Z,50.05
2023-01-21T10:07:54.654Z,40.67
2023-01-21T10:10:54.847Z,45.03
2023-01-21T10:13:37.475Z,33.10
2023-01-21T10:16:25.156Z,28.83
2023-01-21T10:18:53.918Z,24.10
2023-01-21T10:21:36.994Z,16.23
2023-01-21T10:24:17.004Z,18.45
2023-01-21T10:26:47.927Z,16.70
2023-01-21T10:29:22.872Z,16.92
2023-01-21T10:31:59.542Z,18.27
2023-01-21T10:34:39.899Z,14.85
2023-01-21T10:37:15.254Z,15.23
2023-01-21T10:40:14.187Z,17.20
2023-01-21T10:43:03.658Z,16.98
2023-01-21T10:45:45.336Z,15.75
2023-01-21T10:48:32.557Z,15.00
2023-01-21T10:51:19.230Z,13.65
2023-01-21T10:54:07.497Z,15.32
2023-01-21T10:56:48.684Z,13.48
2023-01-21T10:59:23.005Z,14.80
2023-01-21T11:02:03.808Z,12.93
2023-01-21T11:07:07.904Z,13.73
2023-01-21T11:09:38.952Z,12.45
2023-01-21T11:12:10.462Z,14.82
2023-01-21T11:14:37.828Z,10.43
2023-01-21T11:17:05.819Z,11.55
2023-01-21T11:19:33.443Z,12.05
2023-01-21T11:22:06.895Z,11.90
2023-01-21T11:24:49.411Z,11.60
2023-01-21T11:27:19.791Z,12.07
2023-01-21T11:29:49.921Z,11.00
2023-01-21T11:32:24.138Z,9.90
2023-01-21T11:35:01.865Z,10.48
2023-01-21T11:37:31.523Z,10.73
2023-01-21T11:40:07.302Z,10.25
2023-01-21T11:42:47.360Z,10.68
2023-01-21T11:45:32.852Z,9.77
2023-01-21T11:48:01.332Z,10.05
2023-01-21T11:50:29.815Z,8.35
2023-01-21T11:53:10.161Z,8.80
2023-01-21T11:55:55.233Z,7.35
2023-01-21T11:58:22.492Z,9.20
2023-01-21T12:00:53.050Z,7.80
2023-01-21T12:03:24.801Z,8.25
2023-01-21T12:05:53.686Z,12.77
2023-01-21T12:08:28.115Z,11.75
2023-01-21T12:10:57.839Z,8.32
2023-01-21T12:13:31.857Z,12.48
2023-01-21T12:16:23.931Z,8.95
2023-01-21T12:18:57.456Z,7.35
2023-01-21T12:21:43.121Z,6.65
2023-01-21T12:24:19.143Z,7.60
2023-01-21T12:27:02.502Z,6.88
2023-01-21T12:29:54.941Z,8.55
2023-01-21T12:32:37.858Z,5.43
2023-01-21T12:35:30.336Z,5.88
2023-01-21T12:38:06.914Z,4.82
2023-01-21T12:40:41.040Z,3.67
2023-01-21T12:43:37.255Z,2.70
2023-01-21T12:46:24.847Z,2.75
2023-01-21T12:49:15.532Z,2.50
2023-01-21T12:51:46.702Z,2.47
2023-01-21T12:54:42.111Z,2.03
2023-01-21T12:57:22.075Z,2.78
2023-01-21T12:59:55.704Z,1.80
2023-01-21T13:02:33.469Z,2.45
2023-01-21T13:05:15.476Z,2.50
2023-01-21T13:08:20.593Z,2.50
2023-01-21T13:10:54.995Z,2.90
2023-01-21T13:13:30.803Z,3.35
2023-01-21T13:16:05.284Z,3.95
2023-01-21T13:18:43.676Z,2.80
2023-01-21T13:21:47.996Z,3.22
2023-01-21T13:24:46.600Z,2.97
2023-01-21T13:27:21.793Z,3.13
2023-01-21T13:29:54.950Z,2.90
2023-01-21T13:32:36.492Z,3.75
2023-01-21T13:35:25.964Z,3.00
2023-01-21T13:38:16.780Z,4.57
2023-01-21T13:43:41.459Z,3.15
2023-01-21T13:46:39.337Z,3.13
2023-01-21T13:49:22.384Z,3.85
2023-01-21T13:52:07.529Z,3.60
2023-01-21T13:54:53.211Z,3.80
2023-01-21T13:57:37.839Z,3.97
2023-01-21T14:00:24.587Z,3.83
2023-01-21T14:03:04.317Z,4.45
2023-01-21T14:05:46.929Z,5.40
2023-01-21T14:08:23.819Z,5.20
2023-01-21T14:11:07.010Z,5.32
2023-01-21T14:13:55.933Z,5.80
2023-01-21T14:16:31.157Z,4.88
2023-01-21T14:19:16.983Z,5.00
2023-01-21T14:21:54.014Z,6.45
2023-01-21T14:24:53.914Z,6.03
2023-01-21T14:27:27.380Z,6.57
2023-01-21T14:30:21.026Z,5.55
2023-01-21T14:32:57.592Z,5.68
2023-01-21T14:35:41.872Z,6.93
2023-01-21T14:38:44.677Z,5.03
2023-01-21T14:41:12.720Z,5.20
2023-01-21T14:43:44.453Z,5.55
2023-01-21T14:46:33.703Z,5.85
2023-01-21T14:49:12.284Z,5.45
2023-01-21T14:51:51.918Z,5.13
2023-01-21T14:54:26.703Z,5.28
2023-01-21T14:57:01.745Z,5.32
2023-01-21T14:59:33.655Z,4.68
2023-01-21T15:02:04.986Z,5.72
2023-01-21T15:04:40.587Z,6.88
2023-01-21T15:07:18.191Z,6.60
2023-01-21T15:09:52.411Z,5.68
2023-01-21T15:12:28.606Z,7.07
2023-01-21T15:14:59.594Z,5.32
2023-01-21T15:17:54.790Z,6.18
2023-01-21T15:21:00.993Z,6.65
2023-01-21T15:23:31.677Z,5.40
2023-01-21T15:26:05.281Z,5.90
2023-01-21T15:28:44.896Z,5.68
2023-01-21T15:31:21.736Z,6.05
2023-01-21T15:33:52.157Z,4.57
2023-01-21T15:36:29.533Z,5.43
2023-01-21T15:39:02.736Z,4.80
2023-01-21T15:41:36.078Z,7.18
2023-01-21T15:44:12.425Z,6.53
2023-01-21T15:46:58.088Z,12.30
2023-01-21T15:49:25.498Z,35.83
2023-01-21T15:52:13.643Z,21.13
2023-01-21T15:55:21.466Z,25.50
2023-01-21T15:58:21.881Z,17.60
2023-01-21T16:01:27.022Z,8.15
2023-01-21T16:04:23.714Z,10.23
2023-01-21T16:07:14.774Z,7.35
2023-01-21T16:09:48.017Z,10.35
2023-01-21T16:12:33.448Z,9.65
2023-01-21T16:15:27.123Z,6.82
2023-01-21T16:18:11.356Z,8.23
2023-01-21T16:20:48.392Z,9.60
2023-01-21T16:23:19.276Z,12.65
2023-01-21T16:25:48.714Z,12.25
2023-01-21T16:28:17.167Z,10.80
2023-01-21T16:30:56.647Z,10.18
2023-01-21T16:33:24.514Z,9.90
2023-01-21T16:35:57.340Z,11.82
2023-01-21T16:38:27.626Z,12.65
2023-01-21T16:41:07.256Z,17.38
2023-01-21T16:43:37.512Z,11.25
2023-01-21T16:46:11.976Z,11.52
2023-01-21T16:48:39.905Z,10.48
2023-01-21T16:51:18.558Z,13.32
2023-01-21T16:53:46.017Z,12.48
2023-01-21T16:56:30.390Z,13.43
2023-01-21T16:58:57.661Z,13.35
2023-01-21T17:01:30.318Z,15.18
2023-01-21T17:04:01.225Z,12.45
2023-01-21T17:06:33.208Z,13.73
2023-01-21T17:09:07.519Z,15.85
2023-01-21T17:11:38.608Z,13.18
2023-01-21T17:14:10.374Z,14.13
2023-01-21T17:16:40.753Z,13.82
2023-01-21T17:19:22.406Z,12.15
2023-01-21T17:21:55.596Z,14.20
2023-01-21T17:24:28.039Z,14.73
2023-01-21T17:27:09.959Z,15.13
2023-01-21T17:29:39.006Z,16.85
2023-01-21T17:32:31.766Z,17.35
2023-01-21T17:35:18.094Z,16.70
2023-01-21T17:38:04.097Z,15.90
2023-01-21T17:40:32.773Z,16.73
2023-01-21T17:43:10.338Z,16.50
2023-01-21T17:45:42.860Z,18.67
2023-01-21T17:48:24.433Z,17.00
2023-01-21T17:50:55.292Z,18.33
2023-01-21T17:53:28.775Z,15.45
2023-01-21T17:56:05.373Z,18.60
2023-01-21T17:58:52.540Z,19.92
2023-01-21T18:01:21.112Z,17.75
2023-01-21T18:03:48.675Z,18.55
2023-01-21T18:06:24.982Z,21.73
2023-01-21T18:08:54.113Z,20.45
2023-01-21T18:11:22.722Z,16.70
2023-01-21T18:13:50.383Z,19.20
2023-01-21T18:16:18.125Z,18.02
2023-01-21T18:18:45.514Z,16.70
2023-01-21T18:21:21.198Z,18.15
2023-01-21T18:23:49.664Z,20.23
2023-01-21T18:26:34.255Z,19.83
2023-01-21T18:29:02.010Z,20.88
2023-01-21T18:31:29.662Z,18.88
2023-01-21T18:33:57.256Z,18.15
2023-01-21T18:36:24.583Z,26.08
2023-01-21T18:38:51.865Z,24.33
2023-01-21T18:41:19.263Z,23.17
2023-01-21T18:43:46.530Z,21.42
2023-01-21T18:46:16.209Z,21.98
2023-01-21T18:48:43.713Z,25.00
2023-01-21T18:51:13.088Z,22.40
2023-01-21T18:53:41.508Z,19.85
2023-01-21T18:56:13.941Z,22.20
2023-01-21T18:58:41.443Z,21.15
2023-01-21T19:01:21.962Z,20.30
2023-01-21T19:03:53.954Z,20.08
2023-01-21T19:08:50.889Z,22.83
2023-01-21T19:11:18.272Z,23.83
2023-01-21T19:13:45.712Z,21.23
2023-01-21T19:16:16.242Z,21.35
2023-01-21T19:18:44.988Z,22.30
2023-01-21T19:21:14.811Z,25.17
2023-01-21T19:23:42.161Z,26.38
2023-01-21T19:26:13.760Z,23.05
2023-01-21T19:28:41.544Z,23.08
2023-01-21T19:31:09.001Z,23.63
2023-01-21T19:33:36.439Z,22.50
2023-01-21T19:36:10.380Z,21.85
2023-01-21T19:38:37.826Z,22.48
2023-01-21T19:41:05.590Z,20.88
2023-01-21T19:43:33.223Z,22.42
2023-01-21T19:46:00.613Z,23.05
2023-01-21T19:48:28.789Z,22.55
2023-01-21T19:50:56.098Z,18.13
2023-01-21T19:53:24.907Z,20.92
2023-01-21T19:55:52.287Z,20.90
2023-01-21T19:58:26.557Z,22.85
2023-01-21T20:00:54.474Z,23.02
2023-01-21T20:03:23.651Z,19.25
2023-01-21T20:05:59.349Z,19.48
2023-01-21T20:08:29.165Z,16.90
2023-01-21T20:10:56.895Z,18.48
2023-01-21T20:13:24.638Z,17.40
2023-01-21T20:15:52.601Z,20.17
2023-01-21T20:18:22.359Z,22.80
2023-01-21T20:20:49.797Z,21.50
2023-01-21T20:23:17.963Z,18.63
2023-01-21T20:25:48.410Z,19.83
2023-01-21T20:28:26.242Z,20.30
2023-01-21T20:30:54.669Z,16.42
2023-01-21T20:33:23.929Z,14.30
2023-01-21T20:35:54.443Z,13.23
2023-01-21T20:38:30.102Z,13.15
2023-01-21T20:40:58.405Z,10.70
2023-01-21T20:43:26.145Z,15.52
2023-01-21T20:45:57.485Z,11.15
2023-01-21T20:48:30.802Z,6.88
2023-01-21T20:50:58.402Z,7.90
2023-01-21T20:53:26.476Z,8.48
2023-01-21T20:55:58.738Z,7.28
2023-01-21T20:58:28.393Z,7.78
2023-01-21T21:00:56.063Z,5.60
2023-01-21T21:03:23.397Z,9.07
2023-01-21T21:05:50.732Z,11.68
2023-01-21T21:08:20.811Z,6.68
2023-01-21T21:10:50.966Z,7.25
2023-01-21T21:13:19.161Z,6.97
2023-01-21T21:15:47.809Z,10.00
2023-01-21T21:18:15.418Z,10.35
2023-01-21T21:20:42.826Z,5.40
2023-01-21T21:23:16.053Z,5.80
2023-01-21T21:25:47.990Z,5.63
2023-01-21T21:28:17.228Z,6.15
2023-01-21T21:30:45.260Z,5.72
2023-01-21T21:33:18.288Z,6.15
2023-01-21T21:35:47.018Z,6.03
2023-01-21T21:38:17.161Z,5.53
2023-01-21T21:40:48.424Z,4.63
2023-01-21T21:43:32.788Z,6.05
2023-01-21T21:46:29.057Z,4.78
2023-01-21T21:48:56.637Z,4.35
2023-01-21T21:51:24.176Z,6.43
2023-01-21T21:53:52.240Z,7.05
2023-01-21T21:56:21.634Z,6.78
2023-01-21T21:58:50.448Z,5.10
2023-01-21T22:01:30.483Z,7.00
2023-01-21T22:04:04.970Z,6.10
2023-01-21T22:06:33.742Z,7.05
2023-01-21T22:09:01.417Z,5.35
2023-01-21T22:11:29.458Z,3.97
2023-01-21T22:13:58.344Z,7.35
2023-01-21T22:16:28.138Z,5.88
2023-01-21T22:18:58.508Z,5.90
2023-01-21T22:21:29.053Z,5.40
2023-01-21T22:23:56.437Z,4.88
2023-01-21T22:26:26.139Z,7.22
2023-01-21T22:28:54.128Z,4.20
2023-01-21T22:31:30.458Z,7.30
2023-01-21T22:33:59.091Z,4.63
2023-01-21T22:36:28.582Z,4.05
2023-01-21T22:38:56.311Z,4.47
2023-01-21T22:41:25.204Z,4.18
2023-01-21T22:43:53.292Z,7.00
2023-01-21T22:46:25.255Z,8.18
2023-01-21T22:48:55.584Z,9.50
2023-01-21T22:51:23.770Z,5.47
2023-01-21T22:53:52.040Z,5.10
2023-01-21T22:56:25.427Z,13.25
2023-01-21T22:58:59.375Z,8.02
2023-01-21T23:01:32.714Z,8.15
2023-01-21T23:04:00.641Z,9.68
2023-01-21T23:06:28.563Z,9.02
2023-01-21T23:08:55.916Z,8.82
2023-01-21T23:11:23.195Z,9.00
2023-01-21T23:13:53.078Z,12.40
2023-01-21T23:16:23.703Z,15.52
2023-01-21T23:18:51.179Z,10.32
2023-01-21T23:21:21.400Z,13.55
2023-01-21T23:23:49.624Z,11.80
2023-01-21T23:26:20.169Z,12.25
2023-01-21T23:28:47.603Z,11.77
2023-01-21T23:31:17.657Z,10.45
2023-01-21T23:33:50.530Z,13.70
2023-01-21T23:36:18.338Z,16.98
2023-01-21T23:38:45.887Z,14.70
2023-01-21T23:41:16.930Z,15.98
2023-01-21T23:43:44.385Z,15.55
2023-01-21T23:46:16.634Z,18.00
2023-01-21T23:48:44.036Z,16.65
2023-01-21T23:51:13.915Z,14.27
2023-01-21T23:53:41.573Z,18.15
2023-01-21T23:56:22.215Z,19.52
2023-01-21T23:58:50.535Z,15.20
